sensor_id;sensor_type;location;lat;lon;timestamp;P1;durP1;ratioP1;P2;durP2;ratioP2
7529;SDS011;3806;52.270;10.544;2022-10-31T00:01:18;10.18;;;4.07;;
7529;SDS011;3806;52.270;10.544;2022-10-31T00:03:52;8.45;;;3.70;;
7529;SDS011;3806;52.270;10.544;2022-10-31T00:06:18;6.55;;;3.53;;
7529;SDS011;3806;52.270;10.544;2022-10-31T00:08:45;5.95;;;3.60;;
7529;SDS011;3806;52.270;10.544;2022-10-31T00:11:11;8.88;;;3.58;;
7529;SDS011;3806;52.270;10.544;2022-10-31T00:13:37;7.05;;;3.15;;
7529;SDS011;3806;52.270;10.544;2022-10-31T00:16:02;9.85;;;3.58;;
7529;SDS011;3806;52.270;10.544;2022-10-31T00:18:28;10.55;;;3.78;;
7529;SDS011;3806;52.270;10.544;2022-10-31T00:21:00;5.90;;;3.25;;
7529;SDS011;3806;52.270;10.544;2022-10-31T00:23:27;8.32;;;3.53;;
7529;SDS011;3806;52.270;10.544;2022-10-31T00:25:52;6.05;;;3.65;;
7529;SDS011;3806;52.270;10.544;2022-10-31T00:28:18;10.15;;;3.33;;
7529;SDS011;3806;52.270;10.544;2022-10-31T00:30:44;7.72;;;3.45;;
7529;SDS011;3806;52.270;10.544;2022-10-31T00:33:09;8.05;;;2.63;;
7529;SDS011;3806;52.270;10.544;2022-10-31T00:35:35;7.47;;;3.72;;
7529;SDS011;3806;52.270;10.544;2022-10-31T00:38:00;8.93;;;3.40;;
7529;SDS011;3806;52.270;10.544;2022-10-31T00:40:26;6.95;;;3.00;;
7529;SDS011;3806;52.270;10.544;2022-10-31T00:42:52;10.68;;;3.45;;
7529;SDS011;3806;52.270;10.544;2022-10-31T00:45:20;10.52;;;3.42;;
7529;SDS011;3806;52.270;10.544;2022-10-31T00:47:45;9.65;;;3.47;;
7529;SDS011;3806;52.270;10.544;2022-10-31T00:50:11;10.13;;;3.53;;
7529;SDS011;3806;52.270;10.544;2022-10-31T00:52:36;7.57;;;3.67;;
7529;SDS011;3806;52.270;10.544;2022-10-31T00:55:02;7.60;;;3.88;;
7529;SDS011;3806;52.270;10.544;2022-10-31T00:57:28;6.53;;;3.20;;
7529;SDS011;3806;52.270;10.544;2022-10-31T00:59:53;8.05;;;3.00;;
7529;SDS011;3806;52.270;10.544;2022-10-31T01:02:19;7.03;;;4.00;;
7529;SDS011;3806;52.270;10.544;2022-10-31T01:04:44;8.13;;;3.40;;
7529;SDS011;3806;52.270;10.544;2022-10-31T01:07:10;5.97;;;3.45;;
7529;SDS011;3806;52.270;10.544;2022-10-31T01:09:38;7.18;;;3.15;;
7529;SDS011;3806;52.270;10.544;2022-10-31T01:12:03;5.93;;;3.45;;
7529;SDS011;3806;52.270;10.544;2022-10-31T01:14:29;6.50;;;3.63;;
7529;SDS011;3806;52.270;10.544;2022-10-31T01:16:55;7.93;;;4.07;;
7529;SDS011;3806;52.270;10.544;2022-10-31T01:19:20;9.73;;;4.07;;
7529;SDS011;3806;52.270;10.544;2022-10-31T01:21:46;7.40;;;3.55;;
7529;SDS011;3806;52.270;10.544;2022-10-31T01:24:11;6.10;;;3.10;;
7529;SDS011;3806;52.270;10.544;2022-10-31T01:26:37;6.93;;;3.10;;
7529;SDS011;3806;52.270;10.544;2022-10-31T01:29:04;9.85;;;3.92;;
7529;SDS011;3806;52.270;10.544;2022-10-31T01:31:33;6.28;;;3.78;;
7529;SDS011;3806;52.270;10.544;2022-10-31T01:34:00;11.77;;;3.42;;
7529;SDS011;3806;52.270;10.544;2022-10-31T01:36:28;7.85;;;3.03;;
7529;SDS011;3806;52.270;10.544;2022-10-31T01:38:57;8.10;;;3.65;;
7529;SDS011;3806;52.270;10.544;2022-10-31T01:41:28;9.80;;;3.45;;
7529;SDS011;3806;52.270;10.544;2022-10-31T01:44:00;6.88;;;3.22;;
7529;SDS011;3806;52.270;10.544;2022-10-31T01:46:32;5.65;;;3.47;;
7529;SDS011;3806;52.270;10.544;2022-10-31T01:49:01;8.90;;;3.70;;
7529;SDS011;3806;52.270;10.544;2022-10-31T01:51:33;5.47;;;3.22;;
7529;SDS011;3806;52.270;10.544;2022-10-31T01:54:06;5.72;;;3.50;;
7529;SDS011;3806;52.270;10.544;2022-10-31T01:56:38;8.52;;;3.83;;
7529;SDS011;3806;52.270;10.544;2022-10-31T01:59:06;10.55;;;3.83;;
7529;SDS011;3806;52.270;10.544;2022-10-31T02:01:35;7.35;;;3.10;;
7529;SDS011;3806;52.270;10.544;2022-10-31T02:04:01;7.85;;;3.22;;
7529;SDS011;3806;52.270;10.544;2022-10-31T02:09:32;8.60;;;3.72;;
7529;SDS011;3806;52.270;10.544;2022-10-31T02:11:59;8.98;;;4.43;;
7529;SDS011;3806;52.270;10.544;2022-10-31T02:14:26;9.65;;;3.75;;
7529;SDS011;3806;52.270;10.544;2022-10-31T02:16:54;7.85;;;3.75;;
7529;SDS011;3806;52.270;10.544;2022-10-31T02:19:30;9.25;;;4.18;;
7529;SDS011;3806;52.270;10.544;2022-10-31T02:22:16;13.03;;;4.60;;
7529;SDS011;3806;52.270;10.544;2022-10-31T02:25:35;9.98;;;3.90;;
7529;SDS011;3806;52.270;10.544;2022-10-31T02:30:07;13.07;;;4.55;;
7529;SDS011;3806;52.270;10.544;2022-10-31T02:41:08;8.52;;;3.75;;
7529;SDS011;3806;52.270;10.544;2022-10-31T02:43:49;8.90;;;3.88;;
7529;SDS011;3806;52.270;10.544;2022-10-31T02:46:23;9.88;;;5.18;;
7529;SDS011;3806;52.270;10.544;2022-10-31T02:48:59;7.40;;;3.22;;
7529;SDS011;3806;52.270;10.544;2022-10-31T02:51:31;9.88;;;3.63;;
7529;SDS011;3806;52.270;10.544;2022-10-31T02:53:57;9.48;;;3.75;;
7529;SDS011;3806;52.270;10.544;2022-10-31T02:56:22;7.82;;;3.65;;
7529;SDS011;3806;52.270;10.544;2022-10-31T02:58:59;9.82;;;4.05;;
7529;SDS011;3806;52.270;10.544;2022-10-31T03:04:05;8.27;;;3.90;;
7529;SDS011;3806;52.270;10.544;2022-10-31T03:07:08;6.45;;;4.07;;
7529;SDS011;3806;52.270;10.544;2022-10-31T03:12:38;9.38;;;5.03;;
7529;SDS011;3806;52.270;10.544;2022-10-31T03:15:35;10.55;;;4.55;;
7529;SDS011;3806;52.270;10.544;2022-10-31T03:18:05;10.32;;;4.47;;
7529;SDS011;3806;52.270;10.544;2022-10-31T03:20:55;10.75;;;5.40;;
7529;SDS011;3806;52.270;10.544;2022-10-31T03:23:27;9.15;;;5.10;;
7529;SDS011;3806;52.270;10.544;2022-10-31T03:25:55;10.73;;;5.55;;
7529;SDS011;3806;52.270;10.544;2022-10-31T03:28:23;9.73;;;4.93;;
7529;SDS011;3806;52.270;10.544;2022-10-31T03:30:53;11.07;;;5.97;;
7529;SDS011;3806;52.270;10.544;2022-10-31T03:33:21;15.20;;;5.75;;
7529;SDS011;3806;52.270;10.544;2022-10-31T03:35:54;14.57;;;7.20;;
7529;SDS011;3806;52.270;10.544;2022-10-31T03:38:22;17.05;;;7.55;;
7529;SDS011;3806;52.270;10.544;2022-10-31T03:40:48;15.18;;;6.65;;
7529;SDS011;3806;52.270;10.544;2022-10-31T03:43:18;12.40;;;6.45;;
7529;SDS011;3806;52.270;10.544;2022-10-31T03:45:47;17.63;;;6.60;;
7529;SDS011;3806;52.270;10.544;2022-10-31T03:48:13;14.75;;;6.40;;
7529;SDS011;3806;52.270;10.544;2022-10-31T03:56:19;14.05;;;7.03;;
7529;SDS011;3806;52.270;10.544;2022-10-31T03:59:09;17.52;;;7.60;;
7529;SDS011;3806;52.270;10.544;2022-10-31T04:01:44;11.45;;;6.93;;
7529;SDS011;3806;52.270;10.544;2022-10-31T04:04:14;16.95;;;7.47;;
7529;SDS011;3806;52.270;10.544;2022-10-31T04:06:40;15.82;;;7.68;;
7529;SDS011;3806;52.270;10.544;2022-10-31T04:09:08;16.50;;;8.13;;
7529;SDS011;3806;52.270;10.544;2022-10-31T04:11:36;15.80;;;7.88;;
7529;SDS011;3806;52.270;10.544;2022-10-31T04:14:07;14.45;;;6.93;;
7529;SDS011;3806;52.270;10.544;2022-10-31T04:16:34;12.32;;;7.72;;
7529;SDS011;3806;52.270;10.544;2022-10-31T04:18:59;19.02;;;7.72;;
7529;SDS011;3806;52.270;10.544;2022-10-31T04:21:28;18.25;;;8.30;;
7529;SDS011;3806;52.270;10.544;2022-10-31T04:23:55;15.88;;;8.65;;
7529;SDS011;3806;52.270;10.544;2022-10-31T04:26:21;15.38;;;8.45;;
7529;SDS011;3806;52.270;10.544;2022-10-31T04:28:47;14.93;;;8.35;;
7529;SDS011;3806;52.270;10.544;2022-10-31T04:31:12;24.80;;;9.65;;
7529;SDS011;3806;52.270;10.544;2022-10-31T04:33:38;13.43;;;7.00;;
7529;SDS011;3806;52.270;10.544;2022-10-31T04:36:04;19.67;;;7.82;;
7529;SDS011;3806;52.270;10.544;2022-10-31T04:38:30;18.60;;;7.88;;
7529;SDS011;3806;52.270;10.544;2022-10-31T04:40:55;16.30;;;8.38;;
7529;SDS011;3806;52.270;10.544;2022-10-31T04:43:21;14.93;;;7.78;;
7529;SDS011;3806;52.270;10.544;2022-10-31T04:45:49;21.70;;;9.05;;
7529;SDS011;3806;52.270;10.544;2022-10-31T04:48:14;21.95;;;8.60;;
7529;SDS011;3806;52.270;10.544;2022-10-31T04:50:40;17.02;;;8.80;;
7529;SDS011;3806;52.270;10.544;2022-10-31T04:53:06;20.48;;;9.70;;
7529;SDS011;3806;52.270;10.544;2022-10-31T04:55:31;20.98;;;9.02;;
7529;SDS011;3806;52.270;10.544;2022-10-31T04:57:57;16.85;;;9.60;;
7529;SDS011;3806;52.270;10.544;2022-10-31T05:00:22;23.90;;;9.38;;
7529;SDS011;3806;52.270;10.544;2022-10-31T05:02:49;22.02;;;8.88;;
7529;SDS011;3806;52.270;10.544;2022-10-31T05:05:17;20.25;;;9.50;;
7529;SDS011;3806;52.270;10.544;2022-10-31T05:07:45;15.65;;;8.60;;
7529;SDS011;3806;52.270;10.544;2022-10-31T05:10:13;17.88;;;8.63;;
7529;SDS011;3806;52.270;10.544;2022-10-31T05:12:47;16.73;;;9.45;;
7529;SDS011;3806;52.270;10.544;2022-10-31T05:15:13;22.23;;;9.25;;
7529;SDS011;3806;52.270;10.544;2022-10-31T05:17:40;16.88;;;9.45;;
7529;SDS011;3806;52.270;10.544;2022-10-31T05:20:05;18.58;;;9.35;;
7529;SDS011;3806;52.270;10.544;2022-10-31T05:22:31;21.10;;;10.90;;
7529;SDS011;3806;52.270;10.544;2022-10-31T05:24:57;22.98;;;11.60;;
7529;SDS011;3806;52.270;10.544;2022-10-31T05:27:23;25.10;;;9.52;;
7529;SDS011;3806;52.270;10.544;2022-10-31T05:29:48;18.23;;;10.20;;
7529;SDS011;3806;52.270;10.544;2022-10-31T05:32:14;16.88;;;9.57;;
7529;SDS011;3806;52.270;10.544;2022-10-31T05:34:40;19.70;;;10.07;;
7529;SDS011;3806;52.270;10.544;2022-10-31T05:37:05;22.02;;;9.70;;
7529;SDS011;3806;52.270;10.544;2022-10-31T05:39:31;22.27;;;10.52;;
7529;SDS011;3806;52.270;10.544;2022-10-31T05:41:56;22.85;;;10.88;;
7529;SDS011;3806;52.270;10.544;2022-10-31T05:44:22;18.92;;;10.90;;
7529;SDS011;3806;52.270;10.544;2022-10-31T05:46:48;25.98;;;10.25;;
7529;SDS011;3806;52.270;10.544;2022-10-31T05:49:13;17.30;;;9.38;;
7529;SDS011;3806;52.270;10.544;2022-10-31T05:51:39;27.42;;;10.05;;
7529;SDS011;3806;52.270;10.544;2022-10-31T05:54:04;21.35;;;11.10;;
7529;SDS011;3806;52.270;10.544;2022-10-31T05:56:30;19.05;;;10.43;;
7529;SDS011;3806;52.270;10.544;2022-10-31T05:58:56;22.98;;;10.13;;
7529;SDS011;3806;52.270;10.544;2022-10-31T06:01:21;21.35;;;10.20;;
7529;SDS011;3806;52.270;10.544;2022-10-31T06:03:47;19.80;;;9.73;;
7529;SDS011;3806;52.270;10.544;2022-10-31T06:06:12;24.10;;;10.82;;
7529;SDS011;3806;52.270;10.544;2022-10-31T06:08:38;17.98;;;10.15;;
7529;SDS011;3806;52.270;10.544;2022-10-31T06:11:04;22.63;;;9.93;;
7529;SDS011;3806;52.270;10.544;2022-10-31T06:13:30;22.90;;;10.45;;
7529;SDS011;3806;52.270;10.544;2022-10-31T06:15:56;23.67;;;10.88;;
7529;SDS011;3806;52.270;10.544;2022-10-31T06:18:21;19.67;;;10.88;;
7529;SDS011;3806;52.270;10.544;2022-10-31T06:20:47;23.17;;;9.95;;
7529;SDS011;3806;52.270;10.544;2022-10-31T06:23:12;20.20;;;10.20;;
7529;SDS011;3806;52.270;10.544;2022-10-31T06:25:38;21.88;;;10.82;;
7529;SDS011;3806;52.270;10.544;2022-10-31T06:28:03;23.15;;;10.40;;
7529;SDS011;3806;52.270;10.544;2022-10-31T06:30:30;22.08;;;10.38;;
7529;SDS011;3806;52.270;10.544;2022-10-31T06:33:01;26.98;;;10.23;;
7529;SDS011;3806;52.270;10.544;2022-10-31T06:35:28;18.98;;;9.57;;
7529;SDS011;3806;52.270;10.544;2022-10-31T06:37:53;16.02;;;9.45;;
7529;SDS011;3806;52.270;10.544;2022-10-31T06:40:19;20.30;;;10.10;;
7529;SDS011;3806;52.270;10.544;2022-10-31T06:42:45;21.13;;;9.48;;
7529;SDS011;3806;52.270;10.544;2022-10-31T06:45:11;19.02;;;9.20;;
7529;SDS011;3806;52.270;10.544;2022-10-31T06:47:36;16.75;;;8.82;;
7529;SDS011;3806;52.270;10.544;2022-10-31T06:50:02;16.80;;;9.65;;
7529;SDS011;3806;52.270;10.544;2022-10-31T06:52:28;14.43;;;8.63;;
7529;SDS011;3806;52.270;10.544;2022-10-31T06:54:53;19.60;;;9.27;;
7529;SDS011;3806;52.270;10.544;2022-10-31T06:57:19;18.30;;;9.15;;
7529;SDS011;3806;52.270;10.544;2022-10-31T06:59:44;17.73;;;8.63;;
7529;SDS011;3806;52.270;10.544;2022-10-31T07:02:10;21.85;;;9.88;;
7529;SDS011;3806;52.270;10.544;2022-10-31T07:04:36;19.50;;;9.10;;
7529;SDS011;3806;52.270;10.544;2022-10-31T07:07:02;20.73;;;9.90;;
7529;SDS011;3806;52.270;10.544;2022-10-31T07:09:27;18.00;;;10.05;;
7529;SDS011;3806;52.270;10.544;2022-10-31T07:11:53;18.42;;;8.70;;
7529;SDS011;3806;52.270;10.544;2022-10-31T07:14:18;18.58;;;9.48;;
7529;SDS011;3806;52.270;10.544;2022-10-31T07:16:48;20.15;;;10.82;;
7529;SDS011;3806;52.270;10.544;2022-10-31T07:19:15;18.05;;;9.73;;
7529;SDS011;3806;52.270;10.544;2022-10-31T07:21:40;20.77;;;9.02;;
7529;SDS011;3806;52.270;10.544;2022-10-31T07:24:06;17.00;;;9.48;;
7529;SDS011;3806;52.270;10.544;2022-10-31T07:26:31;22.15;;;8.77;;
7529;SDS011;3806;52.270;10.544;2022-10-31T07:28:57;22.60;;;9.77;;
7529;SDS011;3806;52.270;10.544;2022-10-31T07:31:24;23.98;;;9.82;;
7529;SDS011;3806;52.270;10.544;2022-10-31T07:33:49;22.65;;;9.52;;
7529;SDS011;3806;52.270;10.544;2022-10-31T07:36:15;24.90;;;11.10;;
7529;SDS011;3806;52.270;10.544;2022-10-31T07:38:41;19.33;;;9.65;;
7529;SDS011;3806;52.270;10.544;2022-10-31T07:41:07;19.45;;;9.77;;
7529;SDS011;3806;52.270;10.544;2022-10-31T07:43:32;23.25;;;10.48;;
7529;SDS011;3806;52.270;10.544;2022-10-31T07:45:58;26.25;;;10.52;;
7529;SDS011;3806;52.270;10.544;2022-10-31T07:48:23;20.67;;;10.63;;
7529;SDS011;3806;52.270;10.544;2022-10-31T07:50:49;24.02;;;10.85;;
7529;SDS011;3806;52.270;10.544;2022-10-31T07:53:15;20.88;;;9.88;;
7529;SDS011;3806;52.270;10.544;2022-10-31T07:55:40;21.95;;;10.82;;
7529;SDS011;3806;52.270;10.544;2022-10-31T07:58:08;17.75;;;10.75;;
7529;SDS011;3806;52.270;10.544;2022-10-31T08:00:36;21.00;;;11.10;;
7529;SDS011;3806;52.270;10.544;2022-10-31T08:03:06;23.20;;;10.35;;
7529;SDS011;3806;52.270;10.544;2022-10-31T08:05:33;20.33;;;9.98;;
7529;SDS011;3806;52.270;10.544;2022-10-31T08:08:00;20.88;;;11.43;;
7529;SDS011;3806;52.270;10.544;2022-10-31T08:10:26;21.65;;;10.88;;
7529;SDS011;3806;52.270;10.544;2022-10-31T08:12:59;23.35;;;11.30;;
7529;SDS011;3806;52.270;10.544;2022-10-31T08:15:29;35.78;;;11.05;;
7529;SDS011;3806;52.270;10.544;2022-10-31T08:17:55;18.63;;;10.80;;
7529;SDS011;3806;52.270;10.544;2022-10-31T08:20:21;21.58;;;11.07;;
7529;SDS011;3806;52.270;10.544;2022-10-31T08:22:56;21.73;;;10.85;;
7529;SDS011;3806;52.270;10.544;2022-10-31T08:25:24;23.88;;;10.63;;
7529;SDS011;3806;52.270;10.544;2022-10-31T08:27:54;18.25;;;9.15;;
7529;SDS011;3806;52.270;10.544;2022-10-31T08:30:21;20.08;;;10.07;;
7529;SDS011;3806;52.270;10.544;2022-10-31T08:32:56;21.67;;;11.00;;
7529;SDS011;3806;52.270;10.544;2022-10-31T08:35:26;18.90;;;9.70;;
7529;SDS011;3806;52.270;10.544;2022-10-31T08:37:52;25.25;;;9.93;;
7529;SDS011;3806;52.270;10.544;2022-10-31T08:40:19;26.95;;;13.50;;
7529;SDS011;3806;52.270;10.544;2022-10-31T08:42:45;24.17;;;11.15;;
7529;SDS011;3806;52.270;10.544;2022-10-31T08:45:10;21.00;;;10.45;;
7529;SDS011;3806;52.270;10.544;2022-10-31T08:47:36;19.77;;;11.50;;
7529;SDS011;3806;52.270;10.544;2022-10-31T08:50:01;28.85;;;11.40;;
7529;SDS011;3806;52.270;10.544;2022-10-31T08:52:27;30.48;;;12.68;;
7529;SDS011;3806;52.270;10.544;2022-10-31T08:54:52;28.77;;;14.70;;
7529;SDS011;3806;52.270;10.544;2022-10-31T08:57:18;31.15;;;14.20;;
7529;SDS011;3806;52.270;10.544;2022-10-31T08:59:43;33.50;;;14.02;;
7529;SDS011;3806;52.270;10.544;2022-10-31T09:02:09;41.40;;;15.57;;
7529;SDS011;3806;52.270;10.544;2022-10-31T09:04:35;31.83;;;14.80;;
7529;SDS011;3806;52.270;10.544;2022-10-31T09:07:00;31.92;;;16.02;;
7529;SDS011;3806;52.270;10.544;2022-10-31T09:09:26;33.28;;;16.08;;
7529;SDS011;3806;52.270;10.544;2022-10-31T09:11:51;35.13;;;15.95;;
7529;SDS011;3806;52.270;10.544;2022-10-31T09:14:17;30.80;;;15.32;;
7529;SDS011;3806;52.270;10.544;2022-10-31T09:16:42;37.90;;;14.95;;
7529;SDS011;3806;52.270;10.544;2022-10-31T09:19:08;30.75;;;13.95;;
7529;SDS011;3806;52.270;10.544;2022-10-31T09:21:33;32.03;;;15.70;;
7529;SDS011;3806;52.270;10.544;2022-10-31T09:23:59;33.83;;;14.15;;
7529;SDS011;3806;52.270;10.544;2022-10-31T09:26:24;25.33;;;13.85;;
7529;SDS011;3806;52.270;10.544;2022-10-31T09:28:50;27.25;;;13.93;;
7529;SDS011;3806;52.270;10.544;2022-10-31T09:31:16;27.85;;;14.82;;
7529;SDS011;3806;52.270;10.544;2022-10-31T09:33:41;23.73;;;13.38;;
7529;SDS011;3806;52.270;10.544;2022-10-31T09:36:07;29.20;;;15.27;;
7529;SDS011;3806;52.270;10.544;2022-10-31T09:38:33;29.55;;;14.13;;
7529;SDS011;3806;52.270;10.544;2022-10-31T09:44:23;29.05;;;14.25;;
7529;SDS011;3806;52.270;10.544;2022-10-31T09:49:41;30.63;;;14.63;;
7529;SDS011;3806;52.270;10.544;2022-10-31T09:52:11;25.00;;;13.45;;
7529;SDS011;3806;52.270;10.544;2022-10-31T09:54:46;26.55;;;13.73;;
7529;SDS011;3806;52.270;10.544;2022-10-31T09:57:25;27.98;;;14.93;;
7529;SDS011;3806;52.270;10.544;2022-10-31T09:59:54;23.00;;;13.32;;
7529;SDS011;3806;52.270;10.544;2022-10-31T10:04:55;29.48;;;15.02;;
7529;SDS011;3806;52.270;10.544;2022-10-31T10:07:35;30.42;;;15.13;;
7529;SDS011;3806;52.270;10.544;2022-10-31T10:10:32;26.75;;;13.98;;
7529;SDS011;3806;52.270;10.544;2022-10-31T10:13:06;27.95;;;13.57;;
7529;SDS011;3806;52.270;10.544;2022-10-31T10:15:52;25.38;;;13.13;;
7529;SDS011;3806;52.270;10.544;2022-10-31T10:18:38;24.42;;;13.63;;
7529;SDS011;3806;52.270;10.544;2022-10-31T10:21:22;24.98;;;13.52;;
7529;SDS011;3806;52.270;10.544;2022-10-31T10:26:37;30.75;;;13.43;;
7529;SDS011;3806;52.270;10.544;2022-10-31T10:32:11;19.95;;;12.45;;
7529;SDS011;3806;52.270;10.544;2022-10-31T10:34:45;25.02;;;12.68;;
7529;SDS011;3806;52.270;10.544;2022-10-31T10:37:19;25.08;;;13.38;;
7529;SDS011;3806;52.270;10.544;2022-10-31T10:39:54;21.75;;;13.25;;
7529;SDS011;3806;52.270;10.544;2022-10-31T10:42:32;18.88;;;12.10;;
7529;SDS011;3806;52.270;10.544;2022-10-31T10:45:19;25.10;;;12.32;;
7529;SDS011;3806;52.270;10.544;2022-10-31T10:48:27;26.13;;;12.07;;
7529;SDS011;3806;52.270;10.544;2022-10-31T10:51:06;20.08;;;10.90;;
7529;SDS011;3806;52.270;10.544;2022-10-31T10:53:42;20.98;;;10.77;;
7529;SDS011;3806;52.270;10.544;2022-10-31T10:59:04;19.55;;;10.48;;
7529;SDS011;3806;52.270;10.544;2022-10-31T11:01:29;21.42;;;10.10;;
7529;SDS011;3806;52.270;10.544;2022-10-31T11:03:55;17.17;;;9.93;;
7529;SDS011;3806;52.270;10.544;2022-10-31T11:06:22;17.30;;;8.75;;
7529;SDS011;3806;52.270;10.544;2022-10-31T11:08:51;17.33;;;8.25;;
7529;SDS011;3806;52.270;10.544;2022-10-31T11:13:47;15.90;;;8.25;;
7529;SDS011;3806;52.270;10.544;2022-10-31T11:16:15;19.33;;;9.40;;
7529;SDS011;3806;52.270;10.544;2022-10-31T11:18:51;20.83;;;8.65;;
7529;SDS011;3806;52.270;10.544;2022-10-31T11:21:25;16.65;;;7.35;;
7529;SDS011;3806;52.270;10.544;2022-10-31T11:26:28;13.60;;;6.90;;
7529;SDS011;3806;52.270;10.544;2022-10-31T11:28:57;15.13;;;8.35;;
7529;SDS011;3806;52.270;10.544;2022-10-31T11:31:24;18.90;;;9.30;;
7529;SDS011;3806;52.270;10.544;2022-10-31T11:33:52;15.10;;;7.40;;
7529;SDS011;3806;52.270;10.544;2022-10-31T11:36:23;16.27;;;8.82;;
7529;SDS011;3806;52.270;10.544;2022-10-31T11:38:52;18.40;;;8.40;;
7529;SDS011;3806;52.270;10.544;2022-10-31T11:41:32;19.73;;;8.70;;
7529;SDS011;3806;52.270;10.544;2022-10-31T11:44:00;19.45;;;9.32;;
7529;SDS011;3806;52.270;10.544;2022-10-31T11:48:54;20.15;;;9.02;;
7529;SDS011;3806;52.270;10.544;2022-10-31T11:51:25;18.33;;;8.30;;
7529;SDS011;3806;52.270;10.544;2022-10-31T11:53:54;19.27;;;9.52;;
7529;SDS011;3806;52.270;10.544;2022-10-31T11:56:22;22.52;;;9.73;;
7529;SDS011;3806;52.270;10.544;2022-10-31T11:58:56;19.20;;;9.50;;
7529;SDS011;3806;52.270;10.544;2022-10-31T12:01:29;19.20;;;8.10;;
7529;SDS011;3806;52.270;10.544;2022-10-31T12:04:09;14.98;;;8.13;;
7529;SDS011;3806;52.270;10.544;2022-10-31T12:06:38;14.80;;;7.90;;
7529;SDS011;3806;52.270;10.544;2022-10-31T12:09:19;18.67;;;7.88;;
7529;SDS011;3806;52.270;10.544;2022-10-31T12:17:16;16.63;;;7.50;;
7529;SDS011;3806;52.270;10.544;2022-10-31T12:23:07;15.80;;;7.80;;
7529;SDS011;3806;52.270;10.544;2022-10-31T12:25:46;15.18;;;8.65;;
7529;SDS011;3806;52.270;10.544;2022-10-31T12:28:40;18.42;;;7.97;;
7529;SDS011;3806;52.270;10.544;2022-10-31T12:39:24;15.35;;;7.38;;
7529;SDS011;3806;52.270;10.544;2022-10-31T12:50:31;13.37;;;7.00;;
7529;SDS011;3806;52.270;10.544;2022-10-31T12:56:11;12.95;;;5.13;;
7529;SDS011;3806;52.270;10.544;2022-10-31T13:04:02;8.90;;;4.38;;
7529;SDS011;3806;52.270;10.544;2022-10-31T13:06:36;8.63;;;3.13;;
7529;SDS011;3806;52.270;10.544;2022-10-31T13:09:06;7.25;;;2.60;;
7529;SDS011;3806;52.270;10.544;2022-10-31T13:11:37;6.00;;;2.38;;
7529;SDS011;3806;52.270;10.544;2022-10-31T13:16:54;5.45;;;2.63;;
7529;SDS011;3806;52.270;10.544;2022-10-31T13:24:52;7.22;;;3.03;;
7529;SDS011;3806;52.270;10.544;2022-10-31T13:30:20;7.07;;;3.60;;
7529;SDS011;3806;52.270;10.544;2022-10-31T13:32:49;7.38;;;3.47;;
7529;SDS011;3806;52.270;10.544;2022-10-31T13:40:59;7.35;;;4.13;;
7529;SDS011;3806;52.270;10.544;2022-10-31T13:45:54;8.85;;;3.30;;
7529;SDS011;3806;52.270;10.544;2022-10-31T13:50:59;7.63;;;4.18;;
7529;SDS011;3806;52.270;10.544;2022-10-31T13:53:55;8.23;;;3.30;;
7529;SDS011;3806;52.270;10.544;2022-10-31T13:56:33;11.35;;;4.20;;
7529;SDS011;3806;52.270;10.544;2022-10-31T14:01:27;14.55;;;5.35;;
7529;SDS011;3806;52.270;10.544;2022-10-31T14:03:58;9.52;;;4.80;;
7529;SDS011;3806;52.270;10.544;2022-10-31T14:06:34;9.55;;;4.05;;
7529;SDS011;3806;52.270;10.544;2022-10-31T14:09:27;11.25;;;4.80;;
7529;SDS011;3806;52.270;10.544;2022-10-31T14:12:00;12.32;;;5.68;;
7529;SDS011;3806;52.270;10.544;2022-10-31T14:14:47;6.43;;;4.15;;
7529;SDS011;3806;52.270;10.544;2022-10-31T14:17:17;8.57;;;3.90;;
7529;SDS011;3806;52.270;10.544;2022-10-31T14:20:02;8.43;;;4.50;;
7529;SDS011;3806;52.270;10.544;2022-10-31T14:22:50;9.43;;;4.28;;
7529;SDS011;3806;52.270;10.544;2022-10-31T14:27:58;12.43;;;5.22;;
7529;SDS011;3806;52.270;10.544;2022-10-31T14:30:26;9.80;;;4.72;;
7529;SDS011;3806;52.270;10.544;2022-10-31T14:43:50;9.02;;;5.32;;
7529;SDS011;3806;52.270;10.544;2022-10-31T14:52:22;10.60;;;5.05;;
7529;SDS011;3806;52.270;10.544;2022-10-31T14:54:52;12.70;;;5.45;;
7529;SDS011;3806;52.270;10.544;2022-10-31T14:57:27;14.77;;;6.00;;
7529;SDS011;3806;52.270;10.544;2022-10-31T14:59:57;11.18;;;5.70;;
7529;SDS011;3806;52.270;10.544;2022-10-31T15:02:27;11.15;;;6.18;;
7529;SDS011;3806;52.270;10.544;2022-10-31T15:04:59;11.02;;;4.88;;
7529;SDS011;3806;52.270;10.544;2022-10-31T15:07:26;10.85;;;4.95;;
7529;SDS011;3806;52.270;10.544;2022-10-31T15:10:03;7.32;;;4.45;;
7529;SDS011;3806;52.270;10.544;2022-10-31T15:12:31;11.75;;;4.65;;
7529;SDS011;3806;52.270;10.544;2022-10-31T15:15:11;13.77;;;5.25;;
7529;SDS011;3806;52.270;10.544;2022-10-31T15:17:42;14.15;;;5.60;;
7529;SDS011;3806;52.270;10.544;2022-10-31T15:20:12;6.57;;;4.15;;
7529;SDS011;3806;52.270;10.544;2022-10-31T15:22:46;11.02;;;5.88;;
7529;SDS011;3806;52.270;10.544;2022-10-31T15:25:17;9.32;;;4.93;;
7529;SDS011;3806;52.270;10.544;2022-10-31T15:27:44;13.07;;;4.95;;
7529;SDS011;3806;52.270;10.544;2022-10-31T15:32:46;11.80;;;5.28;;
7529;SDS011;3806;52.270;10.544;2022-10-31T15:35:19;14.25;;;5.88;;
7529;SDS011;3806;52.270;10.544;2022-10-31T15:37:48;12.10;;;5.35;;
7529;SDS011;3806;52.270;10.544;2022-10-31T15:40:14;11.50;;;6.35;;
7529;SDS011;3806;52.270;10.544;2022-10-31T15:42:41;12.05;;;6.68;;
7529;SDS011;3806;52.270;10.544;2022-10-31T15:47:34;16.80;;;7.90;;
7529;SDS011;3806;52.270;10.544;2022-10-31T15:50:01;12.25;;;6.35;;
7529;SDS011;3806;52.270;10.544;2022-10-31T15:52:38;19.63;;;7.65;;
7529;SDS011;3806;52.270;10.544;2022-10-31T15:57:42;15.88;;;7.50;;
7529;SDS011;3806;52.270;10.544;2022-10-31T16:10:56;16.30;;;8.52;;
7529;SDS011;3806;52.270;10.544;2022-10-31T16:13:40;21.77;;;10.13;;
7529;SDS011;3806;52.270;10.544;2022-10-31T16:16:27;22.00;;;8.93;;
7529;SDS011;3806;52.270;10.544;2022-10-31T16:18:55;18.65;;;8.13;;
7529;SDS011;3806;52.270;10.544;2022-10-31T16:21:37;21.20;;;9.65;;
7529;SDS011;3806;52.270;10.544;2022-10-31T16:24:04;24.35;;;9.82;;
7529;SDS011;3806;52.270;10.544;2022-10-31T16:26:40;20.15;;;9.98;;
7529;SDS011;3806;52.270;10.544;2022-10-31T16:29:22;17.65;;;9.43;;
7529;SDS011;3806;52.270;10.544;2022-10-31T16:31:53;18.35;;;9.68;;
7529;SDS011;3806;52.270;10.544;2022-10-31T16:34:22;15.75;;;8.40;;
7529;SDS011;3806;52.270;10.544;2022-10-31T16:36:48;22.58;;;9.52;;
7529;SDS011;3806;52.270;10.544;2022-10-31T16:39:14;19.27;;;8.95;;
7529;SDS011;3806;52.270;10.544;2022-10-31T16:41:42;18.77;;;9.10;;
7529;SDS011;3806;52.270;10.544;2022-10-31T16:44:26;22.77;;;9.88;;
7529;SDS011;3806;52.270;10.544;2022-10-31T16:47:06;18.08;;;9.25;;
7529;SDS011;3806;52.270;10.544;2022-10-31T16:49:32;22.65;;;9.23;;
7529;SDS011;3806;52.270;10.544;2022-10-31T16:51:58;20.90;;;10.25;;
7529;SDS011;3806;52.270;10.544;2022-10-31T16:54:23;22.67;;;10.68;;
7529;SDS011;3806;52.270;10.544;2022-10-31T16:56:49;32.47;;;12.75;;
7529;SDS011;3806;52.270;10.544;2022-10-31T16:59:14;30.50;;;13.25;;
7529;SDS011;3806;52.270;10.544;2022-10-31T17:01:40;33.65;;;14.20;;
7529;SDS011;3806;52.270;10.544;2022-10-31T17:04:13;34.50;;;14.52;;
7529;SDS011;3806;52.270;10.544;2022-10-31T17:06:40;32.97;;;14.48;;
7529;SDS011;3806;52.270;10.544;2022-10-31T17:09:05;38.00;;;16.80;;
7529;SDS011;3806;52.270;10.544;2022-10-31T17:11:31;41.00;;;17.17;;
7529;SDS011;3806;52.270;10.544;2022-10-31T17:13:57;37.10;;;15.57;;
7529;SDS011;3806;52.270;10.544;2022-10-31T17:16:23;35.20;;;16.75;;
7529;SDS011;3806;52.270;10.544;2022-10-31T17:18:48;39.88;;;17.35;;
7529;SDS011;3806;52.270;10.544;2022-10-31T17:21:19;40.58;;;17.40;;
7529;SDS011;3806;52.270;10.544;2022-10-31T17:23:51;43.97;;;18.25;;
7529;SDS011;3806;52.270;10.544;2022-10-31T17:26:17;47.63;;;19.92;;